Time;durP1;ratioP1;P1;durP2;ratioP2;P2;SDS_P1;SDS_P2;PMS_P1;PMS_P2;Temp;Humidity;BMP_temperature;BMP_pressure;BME280_temperature;BME280_humidity;BME280_pressure;Samples;Min_cycle;Max_cycle;Signal;HPM_P1;HPM_P2
2023/10/06 00:03:05;;;;;;;12.55;4.05;;;14.10;99.90;;;;;;5030332;28;20507;-73
2023/10/06 00:05:35;;;;;;;13.98;4.05;;;14.10;99.90;;;;;;5032318;28;20044;-72
2023/10/06 00:08:04;;;;;;;12.57;4.05;;;14.10;99.90;;;;;;5011674;28;20509;-71
2023/10/06 00:10:32;;;;;;;12.05;3.60;;;14.10;99.90;;;;;;5058006;28;20115;-72
2023/10/06 00:12:59;;;;;;;15.80;4.05;;;14.10;99.90;;;;;;5013967;28;20056;-71
2023/10/06 00:15:35;;;;;;;16.38;4.10;;;14.10;99.90;;;;;;5044675;28;122635;-72
2023/10/06 00:18:07;;;;;;;16.70;3.85;;;14.10;99.90;;;;;;5029050;28;20060;-71
2023/10/06 00:20:49;;;;;;;21.65;4.63;;;14.10;99.90;;;;;;5038597;28;20063;-71
2023/10/06 00:23:22;;;;;;;15.73;3.78;;;14.10;99.90;;;;;;5014858;28;120201;-72
2023/10/06 00:25:55;;;;;;;15.15;3.92;;;14.10;99.90;;;;;;5044574;28;20712;-72
2023/10/06 00:28:25;;;;;;;14.02;3.80;;;14.10;99.90;;;;;;5016361;28;81743;-71
2023/10/06 00:30:57;;;;;;;15.18;4.15;;;14.10;99.90;;;;;;5058887;28;20056;-72
2023/10/06 00:33:27;;;;;;;17.90;3.70;;;14.10;99.90;;;;;;5013099;28;129244;-72
2023/10/06 00:35:53;;;;;;;20.00;4.55;;;14.10;99.90;;;;;;5060133;28;20056;-72
2023/10/06 00:38:19;;;;;;;13.23;3.78;;;14.00;99.90;;;;;;5008781;28;224172;-71
2023/10/06 00:40:55;;;;;;;13.48;4.03;;;14.00;99.90;;;;;;5053582;28;20048;-72
2023/10/06 00:43:39;;;;;;;14.50;4.03;;;14.00;99.90;;;;;;5014684;28;156509;-72
2023/10/06 00:46:09;;;;;;;15.02;4.05;;;14.00;99.90;;;;;;5049680;28;20048;-71
2023/10/06 00:48:43;;;;;;;16.25;4.32;;;13.90;99.90;;;;;;5009450;28;244417;-71
2023/10/06 00:51:19;;;;;;;16.42;4.13;;;14.00;99.90;;;;;;5045912;28;20067;-72
2023/10/06 00:53:46;;;;;;;18.20;4.53;;;13.90;99.90;;;;;;4995867;28;135253;-72
2023/10/06 00:56:15;;;;;;;21.15;4.47;;;13.90;99.90;;;;;;5043717;28;20060;-71
2023/10/06 00:58:42;;;;;;;16.08;4.28;;;13.90;99.90;;;;;;5017719;28;92647;-72
2023/10/06 01:01:17;;;;;;;17.75;4.88;;;13.90;99.90;;;;;;5058125;28;20048;-71
2023/10/06 01:03:48;;;;;;;16.17;4.82;;;14.00;99.90;;;;;;5016890;28;140533;-71
2023/10/06 01:06:17;;;;;;;14.90;5.07;;;14.00;99.90;;;;;;5031347;28;20534;-72
2023/10/06 01:08:53;;;;;;;18.08;5.05;;;14.00;99.90;;;;;;5018990;28;139980;-72
2023/10/06 01:11:26;;;;;;;18.23;5.50;;;14.00;99.90;;;;;;5063409;28;20056;-71
2023/10/06 01:13:55;;;;;;;14.30;5.35;;;14.00;99.90;;;;;;5012574;28;20045;-71
2023/10/06 01:16:35;;;;;;;17.73;5.90;;;14.00;99.90;;;;;;5058421;28;20048;-71
2023/10/06 01:19:14;;;;;;;17.38;5.95;;;14.00;99.90;;;;;;5004378;28;49210;-70
2023/10/06 01:21:48;;;;;;;15.07;5.85;;;14.00;99.90;;;;;;5061560;28;20060;-71
2023/10/06 01:24:23;;;;;;;14.80;6.22;;;14.00;99.90;;;;;;5019957;28;209804;-71
2023/10/06 01:26:51;;;;;;;16.15;6.03;;;14.00;99.90;;;;;;5065302;28;20458;-70
2023/10/06 01:29:17;;;;;;;17.73;6.53;;;14.00;99.90;;;;;;5007994;28;258194;-71
2023/10/06 01:31:44;;;;;;;17.63;7.05;;;14.00;99.90;;;;;;5057652;28;20056;-72
2023/10/06 01:34:11;;;;;;;17.95;7.28;;;14.00;99.90;;;;;;5019826;28;150301;-71
2023/10/06 01:36:38;;;;;;;18.23;6.80;;;14.00;99.90;;;;;;5066416;28;20048;-71
2023/10/06 01:39:15;;;;;;;17.45;7.43;;;14.10;99.90;;;;;;5016349;28;221089;-71
2023/10/06 01:41:46;;;;;;;18.85;7.65;;;14.00;99.90;;;;;;5059914;28;20414;-72
2023/10/06 01:44:15;;;;;;;18.20;7.25;;;14.00;99.90;;;;;;5015018;28;158199;-71
2023/10/06 01:46:43;;;;;;;19.02;7.63;;;14.00;99.90;;;;;;5064483;28;20545;-71
2023/10/06 01:49:14;;;;;;;14.48;7.15;;;14.00;99.90;;;;;;4993958;28;157100;-71
2023/10/06 01:51:42;;;;;;;18.52;8.05;;;14.00;99.90;;;;;;5058469;28;20056;-72
2023/10/06 01:54:12;;;;;;;17.45;7.95;;;14.10;99.90;;;;;;5001704;28;116500;-70
2023/10/06 01:56:44;;;;;;;20.90;8.25;;;14.10;99.90;;;;;;5045861;28;20060;-72
2023/10/06 01:59:14;;;;;;;19.05;7.93;;;14.10;99.90;;;;;;5023008;28;125126;-70
2023/10/06 02:01:42;;;;;;;20.30;8.10;;;14.20;99.90;;;;;;5062199;28;20063;-71
2023/10/06 02:04:10;;;;;;;21.75;8.05;;;14.20;99.90;;;;;;5019323;28;114428;-72
2023/10/06 02:06:44;;;;;;;17.92;7.72;;;14.20;99.90;;;;;;5035795;28;20048;-70
2023/10/06 02:09:18;;;;;;;16.90;7.82;;;14.20;99.90;;;;;;5023646;28;33756;-71
2023/10/06 02:11:45;;;;;;;19.85;7.60;;;14.10;99.90;;;;;;5053514;28;20052;-72
2023/10/06 02:14:16;;;;;;;19.90;7.22;;;14.10;99.90;;;;;;5015342;28;20048;-70
2023/10/06 02:16:46;;;;;;;;;;;14.20;99.90;;;;;;5059622;28;20314;-72
2023/10/06 02:19:16;;;;;;;17.38;7.30;;;14.20;99.90;;;;;;5011842;28;69299;-71
2023/10/06 02:21:46;;;;;;;19.38;6.40;;;14.20;99.90;;;;;;5050306;28;20059;-71
2023/10/06 02:24:13;;;;;;;19.58;7.97;;;14.20;99.90;;;;;;5003874;28;219856;-74
2023/10/06 02:26:39;;;;;;;16.25;7.35;;;14.30;99.90;;;;;;5054053;28;20060;-71
2023/10/06 02:29:19;;;;;;;18.80;7.38;;;14.30;99.90;;;;;;5009541;28;217864;-71
2023/10/06 02:31:45;;;;;;;21.00;7.57;;;14.30;99.90;;;;;;5055157;28;20063;-72
2023/10/06 02:34:29;;;;;;;15.82;6.90;;;14.20;99.90;;;;;;4997696;28;20051;-72
2023/10/06 02:36:56;;;;;;;22.95;7.47;;;14.30;99.90;;;;;;5056179;28;20061;-72
2023/10/06 02:39:26;;;;;;;17.10;7.25;;;14.30;99.90;;;;;;5006388;28;20103;-70
2023/10/06 02:41:57;;;;;;;15.00;7.57;;;14.20;99.90;;;;;;5055124;28;20400;-72
2023/10/06 02:44:29;;;;;;;15.80;7.30;;;14.30;99.90;;;;;;5010826;28;101889;-71
2023/10/06 02:46:55;;;;;;;18.08;7.15;;;14.30;99.90;;;;;;5056682;28;20076;-73
2023/10/06 02:49:31;;;;;;;15.88;7.05;;;14.20;99.90;;;;;;5021552;28;118209;-71
2023/10/06 02:52:20;;;;;;;20.08;7.80;;;14.20;99.90;;;;;;5060297;28;20056;-72
2023/10/06 02:54:56;;;;;;;19.58;7.65;;;14.20;99.90;;;;;;4996980;28;168576;-71
2023/10/06 02:57:25;;;;;;;19.02;7.85;;;14.20;99.90;;;;;;5060558;28;20063;-71
2023/10/06 02:59:56;;;;;;;21.23;7.57;;;14.20;99.90;;;;;;5010421;28;205548;-70
2023/10/06 03:02:25;;;;;;;20.08;7.68;;;14.10;99.90;;;;;;5061586;28;20521;-72
2023/10/06 03:04:59;;;;;;;19.63;7.82;;;14.10;99.90;;;;;;5004768;28;76189;-71
2023/10/06 03:07:25;;;;;;;19.48;7.65;;;14.10;99.90;;;;;;5060238;28;20056;-72
2023/10/06 03:09:51;;;;;;;18.38;7.85;;;14.00;99.90;;;;;;5009399;28;186110;-70
2023/10/06 03:14:46;;;;;;;21.02;8.68;;;14.00;99.90;;;;;;5030119;28;103410;-72
2023/10/06 03:17:13;;;;;;;18.48;7.90;;;13.90;99.90;;;;;;5058261;28;20071;-70
2023/10/06 03:19:43;;;;;;;17.63;7.25;;;14.00;99.90;;;;;;5011566;28;174398;-72
2023/10/06 03:22:12;;;;;;;24.25;8.95;;;13.90;99.90;;;;;;5059908;28;20585;-71
2023/10/06 03:24:45;;;;;;;22.27;8.32;;;14.00;99.90;;;;;;5014070;28;57566;-71
2023/10/06 03:27:15;;;;;;;20.63;8.15;;;13.90;99.90;;;;;;5060691;28;20056;-71
2023/10/06 03:29:47;;;;;;;22.10;8.20;;;13.90;99.90;;;;;;5020882;28;33775;-72
2023/10/06 03:32:18;;;;;;;21.38;8.50;;;13.90;99.90;;;;;;5051177;28;20052;-71
2023/10/06 03:34:47;;;;;;;18.70;8.57;;;13.90;99.90;;;;;;4993941;28;20065;-70
2023/10/06 03:37:16;;;;;;;20.50;9.68;;;13.90;99.90;;;;;;5072389;28;20063;-71
2023/10/06 03:39:50;;;;;;;21.27;8.60;;;13.90;99.90;;;;;;5014436;28;20099;-71
2023/10/06 03:42:19;;;;;;;18.88;8.63;;;13.90;99.90;;;;;;5059715;28;20060;-71
2023/10/06 03:44:52;;;;;;;20.65;9.88;;;13.90;99.90;;;;;;4989978;28;140266;-72
2023/10/06 03:47:19;;;;;;;20.25;9.25;;;13.90;99.90;;;;;;5058852;28;20048;-72
2023/10/06 03:49:47;;;;;;;19.80;8.35;;;13.90;99.90;;;;;;5000699;28;84173;-69
2023/10/06 03:52:13;;;;;;;22.73;9.57;;;13.90;99.90;;;;;;5061081;28;20052;-71
2023/10/06 03:54:39;;;;;;;21.83;9.05;;;13.90;99.90;;;;;;4989317;28;131668;-71
2023/10/06 03:57:05;;;;;;;20.02;8.88;;;13.90;99.90;;;;;;5056439;28;20071;-71
2023/10/06 03:59:32;;;;;;;22.17;8.98;;;13.90;99.90;;;;;;5021839;28;187978;-71
2023/10/06 04:01:58;;;;;;;19.48;8.77;;;13.90;99.90;;;;;;5052656;28;20359;-71
2023/10/06 04:04:26;;;;;;;20.10;8.43;;;13.90;99.90;;;;;;4990777;28;20450;-70
2023/10/06 04:06:56;;;;;;;21.10;8.45;;;13.90;99.90;;;;;;5054875;28;20057;-71
2023/10/06 04:09:28;;;;;;;18.23;8.97;;;13.90;99.90;;;;;;5004672;28;222643;-71
2023/10/06 04:11:56;;;;;;;20.35;8.70;;;13.90;99.90;;;;;;5053751;28;20069;-71
2023/10/06 04:14:22;;;;;;;16.58;8.20;;;14.00;99.90;;;;;;5007176;28;73394;-72
2023/10/06 04:16:50;;;;;;;25.13;8.95;;;13.90;99.90;;;;;;5049840;28;20048;-73
2023/10/06 04:19:16;;;;;;;18.63;8.88;;;13.90;99.90;;;;;;5017304;28;28243;-72
2023/10/06 04:21:43;;;;;;;20.50;9.23;;;13.90;99.90;;;;;;5051312;28;20052;-72
2023/10/06 04:24:10;;;;;;;22.15;8.70;;;13.90;99.90;;;;;;5010034;28;20041;-71
2023/10/06 04:26:36;;;;;;;16.88;7.88;;;13.90;99.90;;;;;;5044890;28;20060;-71
2023/10/06 04:29:04;;;;;;;22.17;8.50;;;13.90;99.90;;;;;;5002733;28;20057;-72
2023/10/06 04:31:30;;;;;;;23.17;8.13;;;13.80;99.90;;;;;;5052603;28;20056;-71
2023/10/06 04:33:58;;;;;;;14.60;6.95;;;13.80;99.90;;;;;;5018135;28;20053;-70
2023/10/06 04:36:24;;;;;;;23.52;8.70;;;13.90;99.90;;;;;;5048915;28;20049;-71
2023/10/06 04:38:50;;;;;;;15.20;7.03;;;13.80;99.90;;;;;;5010080;28;77391;-72
2023/10/06 04:41:20;;;;;;;17.85;7.63;;;13.90;99.90;;;;;;5051609;28;20053;-72
2023/10/06 04:43:46;;;;;;;21.38;8.27;;;13.80;99.90;;;;;;4995145;28;61633;-71
2023/10/06 04:46:13;;;;;;;19.77;8.00;;;13.80;99.90;;;;;;5060024;28;20053;-71
2023/10/06 04:48:39;;;;;;;20.95;7.45;;;13.90;99.90;;;;;;5013465;28;147027;-71
2023/10/06 04:51:06;;;;;;;20.65;7.85;;;13.80;99.90;;;;;;5047377;28;20490;-72
2023/10/06 04:53:36;;;;;;;21.85;8.07;;;13.90;99.90;;;;;;4993058;28;143533;-72
2023/10/06 04:56:03;;;;;;;20.70;7.93;;;13.90;99.90;;;;;;5038589;28;20053;-71
2023/10/06 04:58:30;;;;;;;17.58;7.88;;;13.80;99.90;;;;;;4998329;28;20060;-71
2023/10/06 05:00:59;;;;;;;17.80;8.18;;;13.80;99.90;;;;;;5048534;28;20041;-71
2023/10/06 05:03:26;;;;;;;16.90;7.70;;;13.90;99.90;;;;;;5015256;28;20565;-70
2023/10/06 05:05:55;;;;;;;21.08;7.35;;;13.80;99.90;;;;;;5046491;28;20057;-70
2023/10/06 05:08:24;;;;;;;19.52;7.43;;;13.80;99.90;;;;;;5015263;28;223138;-70
2023/10/06 05:10:52;;;;;;;19.63;7.50;;;13.80;99.90;;;;;;5057507;28;20064;-72
2023/10/06 05:13:19;;;;;;;17.48;6.88;;;13.80;99.90;;;;;;4992321;28;107880;-71
2023/10/06 05:15:45;;;;;;;20.75;7.68;;;13.80;99.90;;;;;;5047716;28;20061;-71
2023/10/06 05:18:15;;;;;;;20.75;7.50;;;13.80;99.90;;;;;;4996153;28;139311;-72
2023/10/06 05:20:42;;;;;;;17.90;7.53;;;13.80;99.90;;;;;;5048167;28;20052;-71
2023/10/06 05:23:14;;;;;;;22.20;6.93;;;13.80;99.90;;;;;;5011803;28;144861;-68
2023/10/06 05:25:41;;;;;;;17.15;7.13;;;13.80;99.90;;;;;;5061317;28;20053;-70
2023/10/06 05:28:10;;;;;;;21.55;6.85;;;13.80;99.90;;;;;;5013731;28;171165;-71
2023/10/06 05:30:38;;;;;;;17.13;7.05;;;13.90;99.90;;;;;;5043886;28;20067;-71
2023/10/06 05:33:05;;;;;;;18.75;7.10;;;13.80;99.90;;;;;;5015081;28;21450;-71
2023/10/06 05:35:38;;;;;;;16.67;6.60;;;13.90;99.90;;;;;;5038040;28;20052;-70
2023/10/06 05:38:08;;;;;;;16.50;6.80;;;13.90;99.90;;;;;;5026885;28;21064;-70
2023/10/06 05:40:35;;;;;;;16.63;7.00;;;13.90;99.90;;;;;;5020629;28;20526;-71
2023/10/06 05:43:04;;;;;;;18.83;7.07;;;13.90;99.90;;;;;;5032860;28;20052;-71
2023/10/06 05:45:30;;;;;;;21.48;7.53;;;13.90;99.90;;;;;;5032042;28;33331;-71
2023/10/06 05:48:06;;;;;;;20.60;6.80;;;13.90;99.90;;;;;;5035055;28;20615;-73
2023/10/06 05:50:35;;;;;;;21.75;7.55;;;14.00;99.90;;;;;;5040691;28;20048;-70
2023/10/06 05:53:04;;;;;;;19.45;6.55;;;14.00;99.90;;;;;;5033106;28;20537;-71
2023/10/06 05:55:35;;;;;;;18.50;6.78;;;14.00;99.90;;;;;;5013031;28;186890;-71
2023/10/06 05:58:04;;;;;;;18.05;6.95;;;14.00;99.90;;;;;;5032025;28;20096;-70
2023/10/06 06:00:31;;;;;;;22.02;7.55;;;14.00;99.90;;;;;;5036826;28;88262;-70
2023/10/06 06:02:59;;;;;;;19.27;7.28;;;14.00;99.90;;;;;;5032261;28;20079;-71
2023/10/06 06:05:29;;;;;;;18.83;6.85;;;14.00;99.90;;;;;;5017715;28;169277;-70
2023/10/06 06:08:03;;;;;;;15.98;7.07;;;14.10;99.90;;;;;;5028148;28;20640;-72
2023/10/06 06:10:30;;;;;;;19.58;6.60;;;14.10;99.90;;;;;;5045689;28;230402;-72
2023/10/06 06:12:57;;;;;;;18.90;7.25;;;14.10;99.90;;;;;;5020416;28;20076;-71
2023/10/06 06:15:26;;;;;;;22.73;7.68;;;14.10;99.90;;;;;;5060462;28;20053;-71
2023/10/06 06:17:58;;;;;;;19.40;7.35;;;14.20;99.90;;;;;;5030139;28;20053;-71
2023/10/06 06:20:25;;;;;;;17.17;6.82;;;14.20;99.90;;;;;;5032925;28;148315;-71
2023/10/06 06:22:53;;;;;;;19.65;7.43;;;14.20;99.90;;;;;;5028029;28;20056;-70
2023/10/06 06:25:21;;;;;;;21.60;6.97;;;14.20;99.90;;;;;;5039792;28;220272;-71
2023/10/06 06:27:53;;;;;;;19.35;7.40;;;14.30;99.90;;;;;;5033078;28;20056;-70
2023/10/06 06:30:21;;;;;;;21.75;7.53;;;14.30;99.90;;;;;;5041942;28;185670;-71
2023/10/06 06:32:52;;;;;;;21.02;7.28;;;14.30;99.90;;;;;;5037471;28;20071;-71
2023/10/06 06:35:23;;;;;;;22.35;7.47;;;14.30;99.90;;;;;;5043436;28;102017;-70
2023/10/06 06:37:59;;;;;;;23.83;7.30;;;14.40;99.90;;;;;;5027320;28;20057;-70
2023/10/06 06:40:26;;;;;;;20.40;6.93;;;14.40;99.90;;;;;;5000712;28;65187;-71
2023/10/06 06:42:55;;;;;;;20.55;7.70;;;14.40;99.90;;;;;;5012509;28;20790;-69
2023/10/06 06:45:24;;;;;;;20.58;7.00;;;14.40;99.90;;;;;;5048364;28;20422;-70
2023/10/06 06:47:51;;;;;;;19.55;7.30;;;14.40;99.90;;;;;;5030196;28;20064;-71
2023/10/06 06:50:17;;;;;;;19.67;7.05;;;14.40;99.90;;;;;;5040110;28;55045;-71
2023/10/06 06:52:45;;;;;;;21.55;7.57;;;14.40;99.90;;;;;;5046445;28;20667;-69
2023/10/06 06:55:14;;;;;;;20.85;8.02;;;14.40;99.90;;;;;;5012504;28;150043;-70
2023/10/06 06:57:45;;;;;;;20.45;7.57;;;14.40;99.90;;;;;;5060302;28;20056;-71
2023/10/06 07:00:15;;;;;;;;;;;14.40;99.90;;;;;;4975870;28;116361;-70
2023/10/06 07:02:44;;;;;;;21.17;7.05;;;14.40;99.90;;;;;;5059343;28;19935;-70
2023/10/06 07:05:12;;;;;;;20.88;6.90;;;14.40;99.90;;;;;;5025827;28;92036;-69
2023/10/06 07:07:43;;;;;;;17.80;7.43;;;14.50;99.90;;;;;;5058640;28;20056;-71
2023/10/06 07:10:19;;;;;;;18.85;7.75;;;14.50;99.90;;;;;;4992517;28;86911;-71
2023/10/06 07:12:49;;;;;;;19.10;6.93;;;14.50;99.90;;;;;;5044282;28;20407;-70
2023/10/06 07:15:18;;;;;;;19.48;7.80;;;14.50;99.90;;;;;;4999172;28;205051;-70
2023/10/06 07:17:49;;;;;;;18.70;7.80;;;14.50;99.90;;;;;;5045404;28;20037;-71
2023/10/06 07:20:17;;;;;;;17.58;7.05;;;14.50;99.90;;;;;;5031083;28;236504;-70
2023/10/06 07:22:47;;;;;;;22.50;7.78;;;14.50;99.90;;;;;;5052654;28;20052;-69
2023/10/06 07:25:15;;;;;;;22.02;7.85;;;14.60;99.90;;;;;;4988854;28;94447;-70
2023/10/06 07:27:43;;;;;;;20.77;7.75;;;14.60;99.90;;;;;;5058138;28;20166;-71
2023/10/06 07:30:10;;;;;;;16.90;7.97;;;14.50;99.90;;;;;;4995428;28;94582;-71
2023/10/06 07:32:41;;;;;;;18.27;7.78;;;14.50;99.90;;;;;;5059029;28;20048;-71
2023/10/06 07:35:12;;;;;;;22.15;8.88;;;14.50;99.90;;;;;;4978316;28;240671;-71
2023/10/06 07:37:42;;;;;;;22.40;8.48;;;14.50;99.90;;;;;;5061768;28;20060;-72
2023/10/06 07:40:18;;;;;;;24.67;8.52;;;14.50;99.90;;;;;;4970016;28;250719;-71
2023/10/06 07:42:46;;;;;;;22.77;9.38;;;14.50;99.90;;;;;;5045419;28;20061;-71
2023/10/06 07:45:13;;;;;;;20.45;7.95;;;14.50;99.90;;;;;;5034525;28;20508;-71
2023/10/06 07:47:44;;;;;;;15.90;7.90;;;14.50;99.90;;;;;;5053499;28;20064;-71
2023/10/06 07:50:15;;;;;;;20.77;8.40;;;14.50;99.90;;;;;;5016365;28;32213;-72
2023/10/06 07:52:42;;;;;;;22.50;8.50;;;14.60;99.90;;;;;;5052710;28;20499;-72
2023/10/06 07:55:10;;;;;;;16.55;7.43;;;14.60;99.90;;;;;;4986426;28;162503;-70
2023/10/06 07:57:45;;;;;;;22.15;8.63;;;14.60;99.90;;;;;;5061884;28;20063;-70
2023/10/06 08:00:18;;;;;;;25.58;9.10;;;14.60;99.90;;;;;;5000549;28;20574;-72
2023/10/06 08:02:45;;;;;;;19.38;8.35;;;14.60;99.90;;;;;;5050341;28;20057;-70
2023/10/06 08:05:12;;;;;;;24.70;7.97;;;14.50;99.90;;;;;;5027907;28;176555;-71
2023/10/06 08:07:42;;;;;;;24.00;8.05;;;14.40;99.90;;;;;;5061309;28;21164;-70
2023/10/06 08:10:13;;;;;;;21.70;8.73;;;14.30;99.90;;;;;;4996674;28;223500;-70
2023/10/06 08:12:46;;;;;;;25.48;9.63;;;14.30;99.90;;;;;;5056632;28;20438;-72
2023/10/06 08:15:17;;;;;;;23.77;9.48;;;14.40;99.90;;;;;;4985636;28;20037;-72
2023/10/06 08:17:45;;;;;;;23.15;9.05;;;14.40;99.90;;;;;;5053136;28;20423;-71
2023/10/06 08:20:17;;;;;;;23.75;9.18;;;14.50;99.90;;;;;;5004483;28;248674;-70
2023/10/06 08:22:47;;;;;;;21.13;9.43;;;14.50;99.90;;;;;;5047476;28;20045;-70
2023/10/06 08:25:14;;;;;;;27.75;8.98;;;14.60;99.90;;;;;;5002669;28;20049;-71
2023/10/06 08:27:45;;;;;;;23.58;9.10;;;14.60;99.90;;;;;;5061781;28;20055;-72
2023/10/06 08:30:16;;;;;;;20.42;8.90;;;14.70;99.90;;;;;;5000937;28;29759;-72
2023/10/06 08:32:44;;;;;;;21.95;9.38;;;14.70;99.90;;;;;;5053735;28;20071;-71
2023/10/06 08:35:13;;;;;;;20.10;8.73;;;14.80;99.90;;;;;;4990863;28;20124;-71
2023/10/06 08:37:46;;;;;;;20.67;9.25;;;14.90;99.90;;;;;;5056591;28;20056;-71
2023/10/06 08:40:19;;;;;;;26.38;9.57;;;15.00;99.90;;;;;;4988429;28;20048;-72
2023/10/06 08:42:56;;;;;;;21.77;8.70;;;15.20;99.90;;;;;;5043897;28;20065;-70
2023/10/06 08:45:28;;;;;;;23.52;8.70;;;15.30;99.90;;;;;;5009867;28;20539;-71
2023/10/06 08:48:01;;;;;;;17.83;8.05;;;15.40;99.90;;;;;;5031728;28;20048;-70
2023/10/06 08:50:29;;;;;;;21.50;8.68;;;15.40;99.90;;;;;;5043065;28;183853;-70
2023/10/06 08:52:57;;;;;;;23.55;8.63;;;15.40;99.90;;;;;;5031635;28;20411;-71
2023/10/06 08:55:25;;;;;;;19.08;7.70;;;15.40;99.90;;;;;;5018920;28;123083;-72
2023/10/06 08:57:53;;;;;;;20.80;7.30;;;15.50;99.90;;;;;;5028296;28;20610;-70
2023/10/06 09:00:26;;;;;;;20.92;7.50;;;15.50;99.90;;;;;;5030566;28;122248;-71
2023/10/06 09:02:54;;;;;;;19.17;8.07;;;15.50;99.90;;;;;;5018714;28;20049;-71
2023/10/06 09:05:21;;;;;;;17.33;7.32;;;15.50;99.90;;;;;;5036672;28;20650;-71
2023/10/06 09:07:58;;;;;;;18.55;7.55;;;15.60;99.90;;;;;;5036827;28;20033;-70
2023/10/06 09:10:26;;;;;;;17.83;7.30;;;15.70;99.90;;;;;;5035329;28;173062;-72
2023/10/06 09:13:04;;;;;;;20.13;7.15;;;15.80;99.90;;;;;;5025590;28;20061;-71
2023/10/06 09:15:31;;;;;;;19.45;7.40;;;15.90;99.90;;;;;;5036956;28;273131;-70
2023/10/06 09:17:58;;;;;;;22.95;7.05;;;16.00;99.90;;;;;;5033705;28;20068;-70
2023/10/06 09:20:29;;;;;;;15.15;5.85;;;16.00;99.90;;;;;;5032232;28;97471;-70
2023/10/06 09:22:55;;;;;;;21.10;6.78;;;16.00;99.90;;;;;;5019544;28;20060;-70
2023/10/06 09:25:21;;;;;;;17.52;6.88;;;16.10;99.90;;;;;;5062638;28;20049;-70
2023/10/06 09:27:48;;;;;;;23.45;7.50;;;16.20;99.90;;;;;;5035915;28;20056;-71
2023/10/06 09:30:20;;;;;;;19.23;6.97;;;16.40;99.90;;;;;;5058560;28;42041;-71
2023/10/06 09:32:48;;;;;;;19.02;6.30;;;16.50;99.90;;;;;;5025606;28;20060;-72
2023/10/06 09:35:22;;;;;;;20.20;6.55;;;16.60;99.90;;;;;;5019080;28;210196;-71
2023/10/06 09:37:51;;;;;;;17.35;6.40;;;16.60;99.90;;;;;;5033762;28;20060;-72
2023/10/06 09:40:20;;;;;;;20.80;6.70;;;16.60;99.90;;;;;;5027386;28;123742;-71
2023/10/06 09:42:48;;;;;;;15.55;5.53;;;16.80;99.90;;;;;;5040071;28;20041;-71
2023/10/06 09:45:21;;;;;;;19.23;6.28;;;16.80;99.90;;;;;;5022212;28;20746;-72
2023/10/06 09:47:56;;;;;;;16.77;5.80;;;17.00;99.90;;;;;;5037926;28;20044;-70
2023/10/06 09:50:23;;;;;;;19.92;6.05;;;16.90;99.90;;;;;;5027382;28;121742;-72
2023/10/06 09:52:50;;;;;;;18.98;5.30;;;16.90;99.90;;;;;;5032193;28;20045;-70
2023/10/06 09:55:19;;;;;;;16.00;5.35;;;16.90;99.90;;;;;;5017450;28;157965;-71
2023/10/06 09:57:47;;;;;;;16.63;5.45;;;16.90;99.90;;;;;;5043893;28;20415;-69
2023/10/06 10:00:21;;;;;;;19.63;5.45;;;17.20;99.90;;;;;;5012505;28;62593;-70
2023/10/06 10:02:48;;;;;;;14.50;5.20;;;17.40;99.90;;;;;;5035526;28;20060;-70
2023/10/06 10:05:19;;;;;;;16.80;5.30;;;17.50;99.90;;;;;;5045908;28;68531;-69
2023/10/06 10:07:49;;;;;;;15.60;4.75;;;17.50;99.90;;;;;;5049398;28;20055;-69
2023/10/06 10:10:22;;;;;;;18.70;5.00;;;17.50;99.90;;;;;;5009474;28;237307;-71
2023/10/06 10:13:19;;;;;;;16.83;5.05;;;17.80;99.90;;;;;;5031444;28;20052;-70
2023/10/06 10:16:04;;;;;;;13.80;4.78;;;18.00;99.90;;;;;;5040715;28;20055;-72
2023/10/06 10:18:35;;;;;;;17.13;5.53;;;18.00;99.90;;;;;;5012889;28;131592;-72
2023/10/06 10:21:01;;;;;;;;;;;18.00;99.90;;;;;;5044806;28;20507;-71
2023/10/06 10:23:30;;;;;;;16.55;4.93;;;18.50;99.90;;;;;;5011404;28;225640;-71
2023/10/06 10:26:22;;;;;;;14.25;4.57;;;18.50;99.90;;;;;;5059955;28;20522;-70
2023/10/06 10:29:12;;;;;;;19.20;5.07;;;18.40;99.90;;;;;;5017667;28;49301;-70
2023/10/06 10:31:41;;;;;;;16.38;4.50;;;18.40;99.90;;;;;;5060699;28;20519;-71
2023/10/06 10:34:08;;;;;;;15.95;4.93;;;18.30;99.90;;;;;;5029702;28;179854;-71
2023/10/06 10:36:35;;;;;;;14.50;4.57;;;18.20;99.90;;;;;;5060736;28;20048;-69
2023/10/06 10:39:12;;;;;;;17.13;4.82;;;18.40;99.90;;;;;;5008836;28;237886;-71
2023/10/06 10:41:40;;;;;;;16.23;4.20;;;18.70;99.90;;;;;;5059548;28;20403;-71
2023/10/06 10:44:08;;;;;;;15.40;4.18;;;18.90;99.90;;;;;;5009942;28;86854;-70
2023/10/06 10:46:42;;;;;;;15.52;4.63;;;18.90;99.90;;;;;;5049077;28;20055;-71
2023/10/06 10:49:11;;;;;;;16.63;3.72;;;19.00;99.90;;;;;;5009500;28;20056;-71
2023/10/06 10:51:51;;;;;;;12.82;3.50;;;19.00;99.90;;;;;;5062363;28;20216;-70
2023/10/06 10:54:26;;;;;;;13.90;3.53;;;18.80;99.90;;;;;;4993324;28;142755;-71
2023/10/06 10:56:53;;;;;;;18.60;4.00;;;19.00;99.90;;;;;;5038157;28;20055;-71
2023/10/06 10:59:23;;;;;;;17.23;3.90;;;19.20;99.90;;;;;;5013133;28;213536;-71
2023/10/06 11:01:53;;;;;;;18.20;4.35;;;19.30;99.90;;;;;;5064740;28;20499;-72
2023/10/06 11:04:29;;;;;;;18.60;4.03;;;19.30;99.90;;;;;;5004923;28;169520;-70
2023/10/06 11:06:58;;;;;;;16.00;3.55;;;19.20;99.90;;;;;;5061219;28;20063;-70
2023/10/06 11:09:37;;;;;;;19.13;4.35;;;19.30;99.90;;;;;;5001307;28;246447;-70
2023/10/06 11:12:17;;;;;;;14.88;3.75;;;19.10;99.90;;;;;;5054740;28;20507;-70
2023/10/06 11:14:43;;;;;;;14.07;3.60;;;19.00;99.90;;;;;;5019669;28;95711;-70
2023/10/06 11:17:11;;;;;;;17.58;3.72;;;19.10;99.90;;;;;;5058121;28;20071;-70
2023/10/06 11:19:39;;;;;;;18.02;4.05;;;19.10;99.90;;;;;;5023211;28;20896;-71
2023/10/06 11:22:13;;;;;;;18.48;4.03;;;19.20;99.90;;;;;;5055835;28;20060;-70
2023/10/06 11:24:40;;;;;;;15.48;3.60;;;19.10;99.90;;;;;;5005316;28;20060;-70
2023/10/06 11:27:28;;;;;;;15.48;3.28;;;18.90;99.90;;;;;;5041522;28;20494;-71
2023/10/06 11:29:57;;;;;;;13.55;3.38;;;19.20;99.90;;;;;;5035784;28;20055;-70
2023/10/06 11:32:24;;;;;;;14.00;3.83;;;19.40;99.90;;;;;;5060921;28;20523;-69
2023/10/06 11:34:50;;;;;;;14.95;3.70;;;19.50;99.90;;;;;;5010228;28;129970;-72
2023/10/06 11:37:24;;;;;;;16.60;3.72;;;19.80;99.90;;;;;;5065467;28;20057;-71
2023/10/06 11:39:57;;;;;;;14.27;3.63;;;20.00;99.90;;;;;;5006128;28;56753;-70
2023/10/06 11:42:30;;;;;;;12.85;3.25;;;20.40;99.90;;;;;;5058786;28;20058;-71
2023/10/06 11:44:59;;;;;;;15.85;3.75;;;20.70;99.90;;;;;;4993381;28;20064;-70
2023/10/06 11:47:28;;;;;;;16.15;3.50;;;21.00;99.90;;;;;;5063154;28;20075;-71
2023/10/06 11:49:55;;;;;;;16.35;3.80;;;21.60;99.90;;;;;;5032823;28;54282;-72
2023/10/06 11:52:21;;;;;;;15.93;3.70;;;21.40;99.90;;;;;;5051921;28;20415;-71
2023/10/06 11:54:48;;;;;;;14.27;3.50;;;20.90;99.90;;;;;;4999321;28;113385;-73
2023/10/06 11:57:14;;;;;;;17.15;3.72;;;20.70;99.90;;;;;;5061553;28;20051;-72
2023/10/06 11:59:50;;;;;;;14.40;3.88;;;20.30;99.90;;;;;;5001294;28;199619;-72
2023/10/06 12:02:17;;;;;;;15.57;3.42;;;20.50;99.90;;;;;;5058415;28;20056;-71
2023/10/06 12:04:44;;;;;;;15.38;3.25;;;20.80;99.90;;;;;;5014555;28;238619;-71
2023/10/06 12:07:23;;;;;;;14.35;3.47;;;20.60;99.90;;;;;;5062227;28;20048;-72
2023/10/06 12:09:50;;;;;;;15.45;3.58;;;20.60;99.90;;;;;;5010055;28;179818;-72
2023/10/06 12:12:19;;;;;;;15.90;3.20;;;20.90;99.90;;;;;;5058375;28;20057;-71
2023/10/06 12:14:45;;;;;;;14.43;3.53;;;21.40;99.90;;;;;;4993312;28;20053;-72
2023/10/06 12:17:14;;;;;;;15.02;3.28;;;21.80;99.90;;;;;;5059668;28;20060;-72
2023/10/06 12:19:44;;;;;;;14.82;3.22;;;21.70;99.90;;;;;;5011034;28;68036;-72
2023/10/06 12:22:10;;;;;;;17.40;3.67;;;21.70;99.90;;;;;;5060520;28;20040;-72
2023/10/06 12:24:36;;;;;;;19.73;3.78;;;21.90;99.90;;;;;;4993127;28;20053;-74
2023/10/06 12:27:03;;;;;;;16.98;3.60;;;21.70;99.90;;;;;;5055344;28;20049;-72
2023/10/06 12:29:31;;;;;;;18.83;3.88;;;21.60;99.90;;;;;;5015102;28;128551;-70
2023/10/06 12:31:58;;;;;;;13.88;3.28;;;21.50;99.90;;;;;;5059043;28;20060;-72
2023/10/06 12:34:27;;;;;;;16.35;3.72;;;21.10;99.90;;;;;;4997897;28;242290;-72
2023/10/06 12:37:01;;;;;;;16.08;3.58;;;21.40;99.90;;;;;;5031391;28;20057;-72
2023/10/06 12:39:34;;;;;;;13.40;3.70;;;22.00;99.90;;;;;;4997346;28;120389;-72
2023/10/06 12:42:01;;;;;;;14.63;3.80;;;22.20;99.90;;;;;;5055371;28;20061;-71
2023/10/06 12:44:27;;;;;;;16.02;3.78;;;21.70;99.90;;;;;;5005063;28;20049;-72
2023/10/06 12:47:10;;;;;;;15.50;3.97;;;21.60;99.90;;;;;;5057318;28;20063;-70
2023/10/06 12:49:43;;;;;;;17.13;3.97;;;21.20;99.90;;;;;;5011439;28;170216;-70
2023/10/06 12:52:10;;;;;;;15.65;3.47;;;21.00;99.90;;;;;;5060081;28;20430;-71
2023/10/06 12:54:36;;;;;;;15.50;3.85;;;21.20;99.90;;;;;;4998831;28;32861;-72